sensor_id;sensor_type;location;lat;lon;timestamp;pressure;altitude;pressure_sealevel;temperature;humidity
53619;BME280;68717;53.040;18.488;2023-06-10T00:00:03;101289.06;;;19.72;100.00
53619;BME280;68717;53.040;18.488;2023-06-10T00:00:18;101292.84;;;19.71;100.00
53619;BME280;68717;53.040;18.488;2023-06-10T00:00:51;101298.28;;;19.71;100.00
53619;BME280;68717;53.040;18.488;2023-06-10T00:01:25;101294.72;;;19.70;100.00
53619;BME280;68717;53.040;18.488;2023-06-10T00:01:38;101307.44;;;19.70;100.00
53619;BME280;68717;53.040;18.488;2023-06-10T00:01:51;101302.88;;;19.70;100.00
53619;BME280;68717;53.040;18.488;2023-06-10T00:02:08;101298.28;;;19.71;100.00
53619;BME280;68717;53.040;18.488;2023-06-10T00:02:22;101302.00;;;19.70;100.00
53619;BME280;68717;53.040;18.488;2023-06-10T00:02:34;101304.72;;;19.70;100.00
53619;BME280;68717;53.040;18.488;2023-06-10T00:02:47;101294.88;;;19.69;100.00
53619;BME280;68717;53.040;18.488;2023-06-10T00:03:00;101302.00;;;19.70;100.00
53619;BME280;68717;53.040;18.488;2023-06-10T00:03:14;101300.31;;;19.69;100.00
53619;BME280;68717;53.040;18.488;2023-06-10T00:03:27;101298.63;;;19.68;100.00
53619;BME280;68717;53.040;18.488;2023-06-10T00:03:41;101299.66;;;19.67;100.00
53619;BME280;68717;53.040;18.488;2023-06-10T00:03:53;101297.78;;;19.67;100.00
53619;BME280;68717;53.040;18.488;2023-06-10T00:04:07;101299.66;;;19.67;100.00
53619;BME280;68717;53.040;18.488;2023-06-10T00:04:20;101302.38;;;19.67;100.00
53619;BME280;68717;53.040;18.488;2023-06-10T00:04:33;101299.81;;;19.65;100.00
53619;BME280;68717;53.040;18.488;2023-06-10T00:04:46;101296.28;;;19.65;100.00
53619;BME280;68717;53.040;18.488;2023-06-10T00:05:00;101297.28;;;19.64;100.00
53619;BME280;68717;53.040;18.488;2023-06-10T00:05:12;101298.16;;;19.64;100.00
53619;BME280;68717;53.040;18.488;2023-06-10T00:05:28;101301.72;;;19.65;100.00
53619;BME280;68717;53.040;18.488;2023-06-10T00:05:42;101299.16;;;19.63;100.00
53619;BME280;68717;53.040;18.488;2023-06-10T00:05:56;101302.72;;;19.64;100.00
53619;BME280;68717;53.040;18.488;2023-06-10T00:06:09;101301.03;;;19.63;100.00
53619;BME280;68717;53.040;18.488;2023-06-10T00:06:22;101301.88;;;19.63;100.00
53619;BME280;68717;53.040;18.488;2023-06-10T00:06:36;101301.22;;;19.61;100.00
53619;BME280;68717;53.040;18.488;2023-06-10T00:06:49;101298.50;;;19.61;100.00
53619;BME280;68717;53.040;18.488;2023-06-10T00:07:03;101301.41;;;19.60;100.00
53619;BME280;68717;53.040;18.488;2023-06-10T00:07:16;101300.38;;;19.61;100.00
53619;BME280;68717;53.040;18.488;2023-06-10T00:07:28;101297.66;;;19.61;100.00
53619;BME280;68717;53.040;18.488;2023-06-10T00:07:41;101306.84;;;19.60;100.00
53619;BME280;68717;53.040;18.488;2023-06-10T00:07:54;101305.13;;;19.59;100.00
53619;BME280;68717;53.040;18.488;2023-06-10T00:08:07;101303.25;;;19.59;100.00
53619;BME280;68717;53.040;18.488;2023-06-10T00:08:20;101304.13;;;19.60;100.00
53619;BME280;68717;53.040;18.488;2023-06-10T00:08:34;101304.28;;;19.58;100.00
53619;BME280;68717;53.040;18.488;2023-06-10T00:08:47;101302.41;;;19.59;100.00
53619;BME280;68717;53.040;18.488;2023-06-10T00:09:00;101298.84;;;19.58;100.00
53619;BME280;68717;53.040;18.488;2023-06-10T00:09:13;101303.47;;;19.58;100.00
53619;BME280;68717;53.040;18.488;2023-06-10T00:09:26;101302.59;;;19.57;100.00
53619;BME280;68717;53.040;18.488;2023-06-10T00:09:40;101304.47;;;19.57;100.00
53619;BME280;68717;53.040;18.488;2023-06-10T00:09:54;101308.91;;;19.58;100.00
53619;BME280;68717;53.040;18.488;2023-06-10T00:10:07;101309.91;;;19.57;100.00
53619;BME280;68717;53.040;18.488;2023-06-10T00:10:20;101307.19;;;19.57;100.00
53619;BME280;68717;53.040;18.488;2023-06-10T00:10:33;101305.50;;;19.56;100.00
53619;BME280;68717;53.040;18.488;2023-06-10T00:10:47;101300.06;;;19.56;100.00
53619;BME280;68717;53.040;18.488;2023-06-10T00:11:00;101306.34;;;19.56;100.00
53619;BME280;68717;53.040;18.488;2023-06-10T00:11:13;101311.13;;;19.54;100.00
53619;BME280;68717;53.040;18.488;2023-06-10T00:11:25;101307.56;;;19.54;100.00
53619;BME280;68717;53.040;18.488;2023-06-10T00:11:40;101306.72;;;19.53;100.00
53619;BME280;68717;53.040;18.488;2023-06-10T00:11:53;101301.28;;;19.53;100.00
53619;BME280;68717;53.040;18.488;2023-06-10T00:12:06;101304.16;;;19.52;100.00
53619;BME280;68717;53.040;18.488;2023-06-10T00:12:19;101307.91;;;19.50;100.00
53619;BME280;68717;53.040;18.488;2023-06-10T00:12:33;101308.94;;;19.49;100.00
53619;BME280;68717;53.040;18.488;2023-06-10T00:12:49;101306.22;;;19.49;100.00
53619;BME280;68717;53.040;18.488;2023-06-10T00:13:05;101311.66;;;19.49;100.00
53619;BME280;68717;53.040;18.488;2023-06-10T00:13:20;101303.50;;;19.49;100.00
53619;BME280;68717;53.040;18.488;2023-06-10T00:13:33;101306.38;;;19.48;100.00
53619;BME280;68717;53.040;18.488;2023-06-10T00:13:46;101305.53;;;19.47;100.00
53619;BME280;68717;53.040;18.488;2023-06-10T00:13:59;101313.69;;;19.47;100.00
53619;BME280;68717;53.040;18.488;2023-06-10T00:14:12;101311.97;;;19.46;100.00
53619;BME280;68717;53.040;18.488;2023-06-10T00:14:25;101308.63;;;19.44;100.00
53619;BME280;68717;53.040;18.488;2023-06-10T00:14:39;101305.91;;;19.44;100.00
53619;BME280;68717;53.040;18.488;2023-06-10T00:14:52;101315.06;;;19.43;100.00
53619;BME280;68717;53.040;18.488;2023-06-10T00:15:07;101308.78;;;19.43;100.00
53619;BME280;68717;53.040;18.488;2023-06-10T00:15:20;101310.69;;;19.42;100.00
53619;BME280;68717;53.040;18.488;2023-06-10T00:15:33;101311.69;;;19.41;100.00
53619;BME280;68717;53.040;18.488;2023-06-10T00:15:47;101315.25;;;19.42;100.00
53619;BME280;68717;53.040;18.488;2023-06-10T00:16:00;101310.00;;;19.40;100.00
53619;BME280;68717;53.040;18.488;2023-06-10T00:16:13;101310.00;;;19.40;100.00
53619;BME280;68717;53.040;18.488;2023-06-10T00:16:26;101311.00;;;19.39;100.00
53619;BME280;68717;53.040;18.488;2023-06-10T00:16:39;101307.44;;;19.39;100.00
53619;BME280;68717;53.040;18.488;2023-06-10T00:16:52;101312.06;;;19.38;100.00
53619;BME280;68717;53.040;18.488;2023-06-10T00:17:05;101307.63;;;19.37;100.00
53619;BME280;68717;53.040;18.488;2023-06-10T00:17:22;101309.50;;;19.37;100.00
53619;BME280;68717;53.040;18.488;2023-06-10T00:17:36;101311.38;;;19.36;100.00
53619;BME280;68717;53.040;18.488;2023-06-10T00:17:52;101311.38;;;19.36;100.00
53619;BME280;68717;53.040;18.488;2023-06-10T00:18:07;101308.81;;;19.35;100.00
53619;BME280;68717;53.040;18.488;2023-06-10T00:18:22;101313.41;;;19.34;100.00
53619;BME280;68717;53.040;18.488;2023-06-10T00:18:35;101314.25;;;19.35;100.00
53619;BME280;68717;53.040;18.488;2023-06-10T00:18:49;101316.31;;;19.33;100.00
53619;BME280;68717;53.040;18.488;2023-06-10T00:19:03;101313.41;;;19.34;100.00
53619;BME280;68717;53.040;18.488;2023-06-10T00:19:16;101309.00;;;19.33;100.00
53619;BME280;68717;53.040;18.488;2023-06-10T00:19:31;101312.75;;;19.32;100.00
53619;BME280;68717;53.040;18.488;2023-06-10T00:19:44;101317.16;;;19.33;100.00
53619;BME280;68717;53.040;18.488;2023-06-10T00:19:59;101321.75;;;19.33;100.00
53619;BME280;68717;53.040;18.488;2023-06-10T00:20:12;101321.91;;;19.31;100.00
53619;BME280;68717;53.040;18.488;2023-06-10T00:20:25;101317.50;;;19.30;100.00
53619;BME280;68717;53.040;18.488;2023-06-10T00:20:38;101312.06;;;19.30;100.00
53619;BME280;68717;53.040;18.488;2023-06-10T00:20:51;101314.78;;;19.30;100.00
53619;BME280;68717;53.040;18.488;2023-06-10T00:21:08;101322.09;;;19.29;100.00
53619;BME280;68717;53.040;18.488;2023-06-10T00:21:22;101315.81;;;19.29;100.00
53619;BME280;68717;53.040;18.488;2023-06-10T00:21:37;101321.25;;;19.29;100.00
53619;BME280;68717;53.040;18.488;2023-06-10T00:21:52;101325.84;;;19.28;100.00
53619;BME280;68717;53.040;18.488;2023-06-10T00:22:05;101314.28;;;19.26;100.00
53619;BME280;68717;53.040;18.488;2023-06-10T00:22:17;101316.34;;;19.24;100.00
53619;BME280;68717;53.040;18.488;2023-06-10T00:22:30;101319.91;;;19.25;100.00
53619;BME280;68717;53.040;18.488;2023-06-10T00:22:44;101319.03;;;19.24;100.00
53619;BME280;68717;53.040;18.488;2023-06-10T00:22:58;101317.38;;;19.23;100.00
53619;BME280;68717;53.040;18.488;2023-06-10T00:23:13;101316.53;;;19.23;100.00
53619;BME280;68717;53.040;18.488;2023-06-10T00:23:26;101314.81;;;19.22;100.00
53619;BME280;68717;53.040;18.488;2023-06-10T00:23:38;101312.25;;;19.20;100.00
53619;BME280;68717;53.040;18.488;2023-06-10T00:23:51;101319.59;;;19.20;100.00
53619;BME280;68717;53.040;18.488;2023-06-10T00:24:04;101319.78;;;19.18;100.00
53619;BME280;68717;53.040;18.488;2023-06-10T00:24:19;101318.91;;;19.18;100.00
53619;BME280;68717;53.040;18.488;2023-06-10T00:24:31;101316.38;;;19.16;100.00
53619;BME280;68717;53.040;18.488;2023-06-10T00:24:44;101315.50;;;19.16;100.00
53619;BME280;68717;53.040;18.488;2023-06-10T00:24:57;101320.09;;;19.15;100.00
53619;BME280;68717;53.040;18.488;2023-06-10T00:25:09;101315.72;;;19.14;100.00
53619;BME280;68717;53.040;18.488;2023-06-10T00:25:23;101319.28;;;19.15;100.00
53619;BME280;68717;53.040;18.488;2023-06-10T00:25:38;101315.72;;;19.14;100.00
53619;BME280;68717;53.040;18.488;2023-06-10T00:25:50;101314.16;;;19.12;100.00
53619;BME280;68717;53.040;18.488;2023-06-10T00:26:03;101311.44;;;19.12;100.00
53619;BME280;68717;53.040;18.488;2023-06-10T00:26:16;101315.19;;;19.11;100.00
53619;BME280;68717;53.040;18.488;2023-06-10T00:26:28;101321.66;;;19.09;100.00
53619;BME280;68717;53.040;18.488;2023-06-10T00:26:41;101319.97;;;19.08;100.00
53619;BME280;68717;53.040;18.488;2023-06-10T00:26:54;101324.56;;;19.08;100.00
53619;BME280;68717;53.040;18.488;2023-06-10T00:27:07;101319.97;;;19.08;100.00
53619;BME280;68717;53.040;18.488;2023-06-10T00:27:19;101314.53;;;19.08;100.00
53619;BME280;68717;53.040;18.488;2023-06-10T00:27:33;101315.56;;;19.07;100.00
53619;BME280;68717;53.040;18.488;2023-06-10T00:27:47;101315.56;;;19.07;100.00
53619;BME280;68717;53.040;18.488;2023-06-10T00:28:00;101311.13;;;19.06;100.00
53619;BME280;68717;53.040;18.488;2023-06-10T00:28:12;101312.84;;;19.07;100.00
53619;BME280;68717;53.040;18.488;2023-06-10T00:28:25;101317.41;;;19.07;100.00
53619;BME280;68717;53.040;18.488;2023-06-10T00:28:38;101318.28;;;19.07;100.00
53619;BME280;68717;53.040;18.488;2023-06-10T00:28:50;101318.28;;;19.07;100.00
53619;BME280;68717;53.040;18.488;2023-06-10T00:29:04;101313.84;;;19.06;100.00
53619;BME280;68717;53.040;18.488;2023-06-10T00:29:17;101316.56;;;19.06;100.00
53619;BME280;68717;53.040;18.488;2023-06-10T00:29:30;101314.88;;;19.05;100.00
53619;BME280;68717;53.040;18.488;2023-06-10T00:29:42;101318.59;;;19.04;100.00
53619;BME280;68717;53.040;18.488;2023-06-10T00:29:55;101320.50;;;19.04;100.00
53619;BME280;68717;53.040;18.488;2023-06-10T00:30:09;101314.00;;;19.05;100.00
53619;BME280;68717;53.040;18.488;2023-06-10T00:30:21;101318.78;;;19.03;100.00
53619;BME280;68717;53.040;18.488;2023-06-10T00:30:35;101316.94;;;19.03;100.00
53619;BME280;68717;53.040;18.488;2023-06-10T00:30:48;101319.66;;;19.03;100.00
53619;BME280;68717;53.040;18.488;2023-06-10T00:31:00;101319.81;;;19.02;100.00
53619;BME280;68717;53.040;18.488;2023-06-10T00:31:13;101317.09;;;19.02;100.00
53619;BME280;68717;53.040;18.488;2023-06-10T00:31:25;101317.25;;;19.00;100.00
53619;BME280;68717;53.040;18.488;2023-06-10T00:31:38;101313.69;;;19.00;100.00
53619;BME280;68717;53.040;18.488;2023-06-10T00:31:51;101319.13;;;19.00;100.00
53619;BME280;68717;53.040;18.488;2023-06-10T00:32:09;101313.88;;;18.98;100.00
53619;BME280;68717;53.040;18.488;2023-06-10T00:32:22;101319.31;;;18.98;100.00
53619;BME280;68717;53.040;18.488;2023-06-10T00:32:35;101318.47;;;18.98;100.00
53619;BME280;68717;53.040;18.488;2023-06-10T00:32:48;101319.50;;;18.97;100.00
53619;BME280;68717;53.040;18.488;2023-06-10T00:33:01;101317.63;;;18.97;100.00
53619;BME280;68717;53.040;18.488;2023-06-10T00:33:13;101316.78;;;18.97;100.00
53619;BME280;68717;53.040;18.488;2023-06-10T00:33:26;101322.22;;;18.97;100.00
53619;BME280;68717;53.040;18.488;2023-06-10T00:33:39;101316.78;;;18.97;100.00
53619;BME280;68717;53.040;18.488;2023-06-10T00:33:52;101311.50;;;18.95;100.00
53619;BME280;68717;53.040;18.488;2023-06-10T00:34:05;101317.78;;;18.96;100.00
53619;BME280;68717;53.040;18.488;2023-06-10T00:34:18;101325.09;;;18.95;100.00
53619;BME280;68717;53.040;18.488;2023-06-10T00:34:30;101311.69;;;18.94;100.00
53619;BME280;68717;53.040;18.488;2023-06-10T00:34:44;101312.50;;;18.94;100.00
53619;BME280;68717;53.040;18.488;2023-06-10T00:34:57;101317.94;;;18.94;100.00
53619;BME280;68717;53.040;18.488;2023-06-10T00:35:09;101322.53;;;18.94;100.00
53619;BME280;68717;53.040;18.488;2023-06-10T00:35:23;101317.09;;;18.94;100.00
53619;BME280;68717;53.040;18.488;2023-06-10T00:35:36;101317.09;;;18.94;100.00
53619;BME280;68717;53.040;18.488;2023-06-10T00:35:49;101324.25;;;18.95;100.00
53619;BME280;68717;53.040;18.488;2023-06-10T00:36:02;101317.94;;;18.94;100.00
53619;BME280;68717;53.040;18.488;2023-06-10T00:36:16;101316.28;;;18.93;100.00
53619;BME280;68717;53.040;18.488;2023-06-10T00:36:29;101311.69;;;18.94;100.00
53619;BME280;68717;53.040;18.488;2023-06-10T00:36:42;101315.22;;;18.94;100.00
53619;BME280;68717;53.040;18.488;2023-06-10T00:36:56;101316.28;;;18.93;100.00
53619;BME280;68717;53.040;18.488;2023-06-10T00:37:09;101316.28;;;18.93;100.00
53619;BME280;68717;53.040;18.488;2023-06-10T00:37:21;101320.03;;;18.92;100.00
53619;BME280;68717;53.040;18.488;2023-06-10T00:37:34;101317.09;;;18.94;100.00
53619;BME280;68717;53.040;18.488;2023-06-10T00:37:48;101314.59;;;18.92;100.00
53619;BME280;68717;53.040;18.488;2023-06-10T00:38:01;101320.88;;;18.93;100.00
53619;BME280;68717;53.040;18.488;2023-06-10T00:38:13;101322.53;;;18.94;100.00
53619;BME280;68717;53.040;18.488;2023-06-10T00:38:26;101315.22;;;18.94;100.00
53619;BME280;68717;53.040;18.488;2023-06-10T00:38:39;101317.94;;;18.94;100.00
53619;BME280;68717;53.040;18.488;2023-06-10T00:38:53;101319.81;;;18.94;100.00
53619;BME280;68717;53.040;18.488;2023-06-10T00:39:06;101317.94;;;18.94;100.00
53619;BME280;68717;53.040;18.488;2023-06-10T00:39:19;101321.69;;;18.93;100.00
53619;BME280;68717;53.040;18.488;2023-06-10T00:39:32;101317.78;;;18.96;100.00
53619;BME280;68717;53.040;18.488;2023-06-10T00:39:44;101323.38;;;18.94;100.00
53619;BME280;68717;53.040;18.488;2023-06-10T00:39:57;101316.28;;;18.93;100.00
53619;BME280;68717;53.040;18.488;2023-06-10T00:40:10;101317.09;;;18.94;100.00
53619;BME280;68717;53.040;18.488;2023-06-10T00:40:23;101317.09;;;18.94;100.00
53619;BME280;68717;53.040;18.488;2023-06-10T00:40:39;101316.28;;;18.93;100.00
53619;BME280;68717;53.040;18.488;2023-06-10T00:40:52;101316.28;;;18.93;100.00
53619;BME280;68717;53.040;18.488;2023-06-10T00:41:05;101320.66;;;18.94;100.00
53619;BME280;68717;53.040;18.488;2023-06-10T00:41:18;101316.28;;;18.93;100.00
53619;BME280;68717;53.040;18.488;2023-06-10T00:41:31;101319.81;;;18.94;100.00
53619;BME280;68717;53.040;18.488;2023-06-10T00:41:46;101317.94;;;18.94;100.00
53619;BME280;68717;53.040;18.488;2023-06-10T00:41:58;101318.97;;;18.93;100.00
53619;BME280;68717;53.040;18.488;2023-06-10T00:42:11;101318.16;;;18.93;100.00
53619;BME280;68717;53.040;18.488;2023-06-10T00:42:24;101317.31;;;18.92;100.00
53619;BME280;68717;53.040;18.488;2023-06-10T00:42:37;101318.31;;;18.91;100.00
53619;BME280;68717;53.040;18.488;2023-06-10T00:42:50;101318.31;;;18.91;100.00
53619;BME280;68717;53.040;18.488;2023-06-10T00:43:02;101315.59;;;18.91;100.00
53619;BME280;68717;53.040;18.488;2023-06-10T00:43:15;101313.91;;;18.90;100.00
53619;BME280;68717;53.040;18.488;2023-06-10T00:43:28;101316.63;;;18.90;100.00
53619;BME280;68717;53.040;18.488;2023-06-10T00:43:40;101316.63;;;18.90;100.00
53619;BME280;68717;53.040;18.488;2023-06-10T00:43:54;101314.91;;;18.89;100.00
53619;BME280;68717;53.040;18.488;2023-06-10T00:44:06;101320.34;;;18.89;100.00
53619;BME280;68717;53.040;18.488;2023-06-10T00:44:19;101310.53;;;18.88;100.00
53619;BME280;68717;53.040;18.488;2023-06-10T00:44:32;101315.09;;;18.87;100.00
53619;BME280;68717;53.040;18.488;2023-06-10T00:44:44;101314.25;;;18.87;100.00
53619;BME280;68717;53.040;18.488;2023-06-10T00:44:57;101308.97;;;18.85;100.00
53619;BME280;68717;53.040;18.488;2023-06-10T00:45:10;101314.41;;;18.85;100.00
53619;BME280;68717;53.040;18.488;2023-06-10T00:45:23;101319.84;;;18.85;100.00
53619;BME280;68717;53.040;18.488;2023-06-10T00:45:37;101319.00;;;18.85;100.00
53619;BME280;68717;53.040;18.488;2023-06-10T00:45:49;101316.28;;;18.85;100.00
53619;BME280;68717;53.040;18.488;2023-06-10T00:46:03;101313.75;;;18.83;100.00
53619;BME280;68717;53.040;18.488;2023-06-10T00:46:16;101317.31;;;18.84;100.00
53619;BME280;68717;53.040;18.488;2023-06-10T00:46:31;101314.59;;;18.84;100.00
53619;BME280;68717;53.040;18.488;2023-06-10T00:46:45;101311.03;;;18.83;100.00
53619;BME280;68717;53.040;18.488;2023-06-10T00:46:59;101313.56;;;18.85;100.00
53619;BME280;68717;53.040;18.488;2023-06-10T00:47:11;101318.16;;;18.84;100.00
53619;BME280;68717;53.040;18.488;2023-06-10T00:47:25;101316.47;;;18.83;100.00
53619;BME280;68717;53.040;18.488;2023-06-10T00:47:38;101316.28;;;18.85;100.00
53619;BME280;68717;53.040;18.488;2023-06-10T00:47:51;101321.72;;;18.85;100.00
53619;BME280;68717;53.040;18.488;2023-06-10T00:48:04;101313.56;;;18.85;100.00
53619;BME280;68717;53.040;18.488;2023-06-10T00:48:18;101319.00;;;18.85;100.00
53619;BME280;68717;53.040;18.488;2023-06-10T00:48:32;101316.28;;;18.85;100.00
53619;BME280;68717;53.040;18.488;2023-06-10T00:48:45;101316.28;;;18.85;100.00
53619;BME280;68717;53.040;18.488;2023-06-10T00:48:58;101308.13;;;18.85;100.00
53619;BME280;68717;53.040;18.488;2023-06-10T00:49:11;101319.00;;;18.85;100.00
53619;BME280;68717;53.040;18.488;2023-06-10T00:49:24;101312.56;;;18.86;100.00
53619;BME280;68717;53.040;18.488;2023-06-10T00:49:37;101322.38;;;18.87;100.00
53619;BME280;68717;53.040;18.488;2023-06-10T00:49:49;101318.84;;;18.86;100.00
53619;BME280;68717;53.040;18.488;2023-06-10T00:50:05;101316.97;;;18.87;100.00
53619;BME280;68717;53.040;18.488;2023-06-10T00:50:18;101316.13;;;18.86;100.00
53619;BME280;68717;53.040;18.488;2023-06-10T00:50:31;101320.50;;;18.87;100.00
53619;BME280;68717;53.040;18.488;2023-06-10T00:50:44;101316.97;;;18.87;100.00
53619;BME280;68717;53.040;18.488;2023-06-10T00:50:57;101318.66;;;18.88;100.00
53619;BME280;68717;53.040;18.488;2023-06-10T00:51:11;101319.50;;;18.88;100.00
53619;BME280;68717;53.040;18.488;2023-06-10T00:51:26;101319.50;;;18.88;100.00
53619;BME280;68717;53.040;18.488;2023-06-10T00:51:40;101314.91;;;18.89;100.00
53619;BME280;68717;53.040;18.488;2023-06-10T00:51:53;101320.34;;;18.89;100.00
53619;BME280;68717;53.040;18.488;2023-06-10T00:52:07;101317.63;;;18.89;100.00
53619;BME280;68717;53.040;18.488;2023-06-10T00:52:22;101320.34;;;18.89;100.00
53619;BME280;68717;53.040;18.488;2023-06-10T00:52:36;101318.66;;;18.88;100.00
53619;BME280;68717;53.040;18.488;2023-06-10T00:52:49;101315.94;;;18.88;100.00
53619;BME280;68717;53.040;18.488;2023-06-10T00:53:07;101324.94;;;18.88;100.00
53619;BME280;68717;53.040;18.488;2023-06-10T00:53:21;101320.34;;;18.89;100.00
53619;BME280;68717;53.040;18.488;2023-06-10T00:53:34;101323.22;;;18.87;100.00
53619;BME280;68717;53.040;18.488;2023-06-10T00:53:47;101324.09;;;18.88;100.00
53619;BME280;68717;53.040;18.488;2023-06-10T00:54:00;101320.50;;;18.87;100.00
53619;BME280;68717;53.040;18.488;2023-06-10T00:54:13;101321.38;;;18.88;100.00
53619;BME280;68717;53.040;18.488;2023-06-10T00:54:28;101324.94;;;18.88;100.00
53619;BME280;68717;53.040;18.488;2023-06-10T00:54:40;101325.78;;;18.89;100.00
53619;BME280;68717;53.040;18.488;2023-06-10T00:54:54;101323.06;;;18.89;100.00
53619;BME280;68717;53.040;18.488;2023-06-10T00:55:07;101328.50;;;18.89;100.00
53619;BME280;68717;53.040;18.488;2023-06-10T00:55:20;101321.19;;;18.89;100.00
53619;BME280;68717;53.040;18.488;2023-06-10T00:55:33;101328.34;;;18.91;100.00
53619;BME280;68717;53.040;18.488;2023-06-10T00:55:46;101325.78;;;18.89;100.00
53619;BME280;68717;53.040;18.488;2023-06-10T00:56:00;101328.34;;;18.91;100.00
53619;BME280;68717;53.040;18.488;2023-06-10T00:56:13;101327.31;;;18.92;100.00
53619;BME280;68717;53.040;18.488;2023-06-10T00:56:26;101326.47;;;18.91;100.00
53619;BME280;68717;53.040;18.488;2023-06-10T00:56:41;101324.59;;;18.92;100.00
53619;BME280;68717;53.040;18.488;2023-06-10T00:56:56;101323.75;;;18.91;100.00
53619;BME280;68717;53.040;18.488;2023-06-10T00:57:09;101327.31;;;18.92;100.00
53619;BME280;68717;53.040;18.488;2023-06-10T00:57:21;101327.31;;;18.92;100.00
53619;BME280;68717;53.040;18.488;2023-06-10T00:57:34;101322.75;;;18.92;100.00
53619;BME280;68717;53.040;18.488;2023-06-10T00:57:48;101326.28;;;18.93;100.00
53619;BME280;68717;53.040;18.488;2023-06-10T00:58:03;101326.28;;;18.93;100.00
53619;BME280;68717;53.040;18.488;2023-06-10T00:58:16;101320.03;;;18.92;100.00
53619;BME280;68717;53.040;18.488;2023-06-10T00:58:29;101330.88;;;18.92;100.00
53619;BME280;68717;53.040;18.488;2023-06-10T00:58:42;101328.16;;;18.92;100.00
53619;BME280;68717;53.040;18.488;2023-06-10T00:58:55;101324.59;;;18.92;100.00
53619;BME280;68717;53.040;18.488;2023-06-10T00:59:08;101320.03;;;18.92;100.00
53619;BME280;68717;53.040;18.488;2023-06-10T00:59:21;101323.75;;;18.91;100.00
53619;BME280;68717;53.040;18.488;2023-06-10T00:59:34;101325.63;;;18.91;100.00
53619;BME280;68717;53.040;18.488;2023-06-10T00:59:49;101331.06;;;18.91;100.00
53619;BME280;68717;53.040;18.488;2023-06-10T01:00:02;101335.44;;;18.92;100.00
53619;BME280;68717;53.040;18.488;2023-06-10T01:00:19;101324.59;;;18.92;100.00
53619;BME280;68717;53.040;18.488;2023-06-10T01:00:32;101325.44;;;18.92;100.00
53619;BME280;68717;53.040;18.488;2023-06-10T01:00:46;101324.59;;;18.92;100.00
53619;BME280;68717;53.040;18.488;2023-06-10T01:00:59;101329.19;;;18.91;100.00
53619;BME280;68717;53.040;18.488;2023-06-10T01:01:11;101330.03;;;18.92;100.00
53619;BME280;68717;53.040;18.488;2023-06-10T01:01:24;101325.44;;;18.92;100.00
53619;BME280;68717;53.040;18.488;2023-06-10T01:01:37;101330.88;;;18.92;100.00
53619;BME280;68717;53.040;18.488;2023-06-10T01:01:52;101329.19;;;18.91;100.00
53619;BME280;68717;53.040;18.488;2023-06-10T01:02:05;101332.72;;;18.92;100.00
53619;BME280;68717;53.040;18.488;2023-06-10T01:02:18;101331.06;;;18.91;100.00
53619;BME280;68717;53.040;18.488;2023-06-10T01:02:31;101330.88;;;18.92;100.00
53619;BME280;68717;53.040;18.488;2023-06-10T01:02:44;101334.59;;;18.91;100.00
53619;BME280;68717;53.040;18.488;2023-06-10T01:02:57;101332.94;;;18.90;100.00
53619;BME280;68717;53.040;18.488;2023-06-10T01:03:10;101334.78;;;18.89;100.00
53619;BME280;68717;53.040;18.488;2023-06-10T01:03:24;101338.38;;;18.90;100.00
53619;BME280;68717;53.040;18.488;2023-06-10T01:03:37;101333.78;;;18.91;100.00
53619;BME280;68717;53.040;18.488;2023-06-10T01:03:50;101335.66;;;18.90;100.00
53619;BME280;68717;53.040;18.488;2023-06-10T01:04:04;101335.66;;;18.90;100.00
53619;BME280;68717;53.040;18.488;2023-06-10T01:04:16;101332.06;;;18.89;100.00
53619;BME280;68717;53.040;18.488;2023-06-10T01:04:29;101329.34;;;18.89;100.00
53619;BME280;68717;53.040;18.488;2023-06-10T01:04:43;101338.38;;;18.90;100.00
53619;BME280;68717;53.040;18.488;2023-06-10T01:04:55;101331.06;;;18.91;100.00
53619;BME280;68717;53.040;18.488;2023-06-10T01:05:08;101331.91;;;18.91;100.00
53619;BME280;68717;53.040;18.488;2023-06-10T01:05:23;101336.47;;;18.91;100.00
53619;BME280;68717;53.040;18.488;2023-06-10T01:05:37;101332.94;;;18.90;100.00
53619;BME280;68717;53.040;18.488;2023-06-10T01:05:57;101334.59;;;18.91;100.00
53619;BME280;68717;53.040;18.488;2023-06-10T01:06:18;101332.94;;;18.90;100.00
53619;BME280;68717;53.040;18.488;2023-06-10T01:06:41;101332.94;;;18.90;100.00
53619;BME280;68717;53.040;18.488;2023-06-10T01:07:05;101332.94;;;18.90;100.00
53619;BME280;68717;53.040;18.488;2023-06-10T01:07:30;101332.94;;;18.90;100.00
53619;BME280;68717;53.040;18.488;2023-06-10T01:07:52;101332.94;;;18.90;100.00
53619;BME280;68717;53.040;18.488;2023-06-10T01:08:13;101332.94;;;18.90;100.00
53619;BME280;68717;53.040;18.488;2023-06-10T01:08:35;101337.50;;;18.89;100.00
53619;BME280;68717;53.040;18.488;2023-06-10T01:08:55;101332.94;;;18.90;100.00
53619;BME280;68717;53.040;18.488;2023-06-10T01:09:15;101335.66;;;18.90;100.00
53619;BME280;68717;53.040;18.488;2023-06-10T01:09:33;101333.94;;;18.89;100.00
53619;BME280;68717;53.040;18.488;2023-06-10T01:09:54;101338.38;;;18.90;100.00
53619;BME280;68717;53.040;18.488;2023-06-10T01:10:12;101343.78;;;18.90;100.00
53619;BME280;68717;53.040;18.488;2023-06-10T01:10:32;101333.94;;;18.89;100.00